createdAt,value
2022-12-19T00:00:32.432Z,1.08
2022-12-19T00:03:00.245Z,0.98
2022-12-19T00:05:27.722Z,1.11
2022-12-19T00:07:55.055Z,1.08
2022-12-19T00:10:22.649Z,1.22
2022-12-19T00:12:50.099Z,1.24
2022-12-19T00:15:17.862Z,1.18
2022-12-19T00:17:45.535Z,1.26
2022-12-19T00:20:12.877Z,1.21
2022-12-19T00:22:43.291Z,1.38
2022-12-19T00:25:11.179Z,1.44
2022-12-19T00:27:38.477Z,1.29
2022-12-19T00:30:06.259Z,1.24
2022-12-19T00:32:33.899Z,1.02
2022-12-19T00:35:01.194Z,0.96
2022-12-19T00:37:29.262Z,0.89
2022-12-19T00:39:56.813Z,0.95
2022-12-19T00:42:24.136Z,0.92
2022-12-19T00:44:51.518Z,1.07
2022-12-19T00:47:19.254Z,1.29
2022-12-19T00:49:46.730Z,1.04
2022-12-19T00:52:17.050Z,0.95
2022-12-19T00:54:44.650Z,0.85
2022-12-19T00:57:12.303Z,0.79
2022-12-19T00:59:40.939Z,0.75
2022-12-19T01:02:08.667Z,0.70
2022-12-19T01:04:41.317Z,0.88
2022-12-19T01:07:11.070Z,1.01
2022-12-19T01:09:38.545Z,0.87
2022-12-19T01:12:25.321Z,0.86
2022-12-19T01:15:04.622Z,0.89
2022-12-19T01:17:44.312Z,1.12
2022-12-19T01:20:29.756Z,0.94
2022-12-19T01:23:00.188Z,1.07
2022-12-19T01:25:28.558Z,0.87
2022-12-19T01:27:57.322Z,1.12
2022-12-19T01:30:24.967Z,1.07
2022-12-19T01:32:53.764Z,0.98
2022-12-19T01:35:21.850Z,0.87
2022-12-19T01:37:54.855Z,0.84
2022-12-19T01:40:36.578Z,1.01
2022-12-19T01:43:04.498Z,0.87
2022-12-19T01:45:37.416Z,0.83
2022-12-19T01:48:16.584Z,0.91
2022-12-19T01:51:01.371Z,0.88
2022-12-19T01:53:48.466Z,0.89
2022-12-19T01:56:18.510Z,0.74
2022-12-19T01:58:49.336Z,0.68
2022-12-19T02:01:18.527Z,0.81
2022-12-19T02:03:47.368Z,0.74
2022-12-19T02:06:15.350Z,0.61
2022-12-19T02:08:46.450Z,0.74
2022-12-19T02:11:16.599Z,0.66
2022-12-19T02:13:48.763Z,0.58
2022-12-19T02:16:42.252Z,0.68
2022-12-19T02:19:19.806Z,0.83
2022-12-19T02:22:16.112Z,0.74
2022-12-19T02:25:22.763Z,0.73
2022-12-19T02:28:28.375Z,0.69
2022-12-19T02:31:22.086Z,0.84
2022-12-19T02:34:10.246Z,0.82
2022-12-19T02:37:04.265Z,0.57
2022-12-19T02:39:51.057Z,0.78
2022-12-19T02:42:42.114Z,0.91
2022-12-19T02:45:22.758Z,0.79
2022-12-19T02:48:03.317Z,0.92
2022-12-19T02:50:41.837Z,0.93
2022-12-19T02:53:11.623Z,0.98
2022-12-19T02:55:51.183Z,0.92
2022-12-19T02:58:35.168Z,1.02
2022-12-19T03:01:21.972Z,1.05
2022-12-19T03:04:08.804Z,0.93
2022-12-19T03:07:05.885Z,0.87
2022-12-19T03:09:59.737Z,0.90
2022-12-19T03:12:36.883Z,0.83
2022-12-19T03:15:05.267Z,0.70
2022-12-19T03:17:39.201Z,0.96
2022-12-19T03:20:14.715Z,0.81
2022-12-19T03:22:42.557Z,0.73
2022-12-19T03:25:09.961Z,1.06
2022-12-19T03:27:39.845Z,0.88
2022-12-19T03:30:10.975Z,0.71
2022-12-19T03:32:41.739Z,0.79
2022-12-19T03:35:19.342Z,0.76
2022-12-19T03:37:50.121Z,0.71
2022-12-19T03:40:20.468Z,0.73
2022-12-19T03:43:08.656Z,0.84
2022-12-19T03:45:44.350Z,0.89
2022-12-19T03:48:19.568Z,0.85
2022-12-19T03:50:57.947Z,0.84
2022-12-19T03:53:38.496Z,0.98
2022-12-19T03:56:22.570Z,0.99
2022-12-19T03:58:57.884Z,0.92
2022-12-19T04:01:28.056Z,0.91
2022-12-19T04:03:59.028Z,0.87
2022-12-19T04:06:30.709Z,0.88
2022-12-19T04:09:00.141Z,0.91
2022-12-19T04:11:34.435Z,0.88
2022-12-19T04:14:08.711Z,0.95
2022-12-19T04:16:48.893Z,1.05
2022-12-19T04:19:25.144Z,0.91
2022-12-19T04:22:00.372Z,1.05
2022-12-19T04:24:33.532Z,0.94
2022-12-19T04:27:03.597Z,1.27
2022-12-19T04:29:34.397Z,1.16
2022-12-19T04:32:07.138Z,1.18
2022-12-19T04:34:36.868Z,1.17
2022-12-19T04:37:07.638Z,1.00
2022-12-19T04:39:35.333Z,0.96
2022-12-19T04:42:02.612Z,1.04
2022-12-19T04:44:30.150Z,1.13
2022-12-19T04:46:57.773Z,1.11
2022-12-19T04:49:25.213Z,1.06
2022-12-19T04:51:52.550Z,0.98
2022-12-19T04:54:20.360Z,1.01
2022-12-19T04:56:47.667Z,1.09
2022-12-19T04:59:15.110Z,0.99
2022-12-19T05:01:42.942Z,1.10
2022-12-19T05:04:10.393Z,1.03
2022-12-19T05:06:39.275Z,1.04
2022-12-19T05:09:07.048Z,1.00
2022-12-19T05:11:35.133Z,1.02
2022-12-19T05:14:02.845Z,0.95
2022-12-19T05:16:30.741Z,0.87
2022-12-19T05:18:58.190Z,0.95
2022-12-19T05:21:25.502Z,0.96
2022-12-19T05:23:53.320Z,0.83
2022-12-19T05:26:21.007Z,0.77
2022-12-19T05:28:49.133Z,0.91
2022-12-19T05:31:20.182Z,0.94
2022-12-19T05:33:48.778Z,0.88
2022-12-19T05:36:17.676Z,0.83
2022-12-19T05:38:45.407Z,0.82
2022-12-19T05:41:18.441Z,0.95
2022-12-19T05:43:50.723Z,1.11
2022-12-19T05:46:18.572Z,1.04
2022-12-19T05:48:46.384Z,0.95
2022-12-19T05:51:14.716Z,1.02
2022-12-19T05:53:42.242Z,0.97
2022-12-19T05:56:15.975Z,1.27
2022-12-19T05:58:45.220Z,1.22
2022-12-19T06:01:16.283Z,1.32
2022-12-19T06:03:44.812Z,1.06
2022-12-19T06:06:19.255Z,0.99
2022-12-19T06:08:47.847Z,1.16
2022-12-19T06:11:15.589Z,0.97
2022-12-19T06:13:43.094Z,1.16
2022-12-19T06:16:13.770Z,1.31
2022-12-19T06:18:44.783Z,1.44
2022-12-19T06:21:21.057Z,1.44
2022-12-19T06:23:48.919Z,1.43
2022-12-19T06:26:20.083Z,1.39
2022-12-19T06:28:49.158Z,1.47
2022-12-19T06:31:17.415Z,1.57
2022-12-19T06:33:44.996Z,1.59
2022-12-19T06:36:18.409Z,1.40
2022-12-19T06:38:46.184Z,1.45
2022-12-19T06:41:32.476Z,1.60
2022-12-19T06:44:01.489Z,1.52
2022-12-19T06:46:30.150Z,1.51
2022-12-19T06:48:57.507Z,1.39
2022-12-19T06:51:25.534Z,1.40
2022-12-19T06:53:53.153Z,1.44
2022-12-19T06:56:20.583Z,1.54
2022-12-19T06:58:48.384Z,1.47
2022-12-19T07:01:25.815Z,1.58
2022-12-19T07:03:54.418Z,1.48
2022-12-19T07:06:22.582Z,1.59
2022-12-19T07:08:49.927Z,1.60
2022-12-19T07:11:18.307Z,1.67
2022-12-19T07:13:45.643Z,1.69
2022-12-19T07:16:13.154Z,1.50
2022-12-19T07:18:41.957Z,1.52
2022-12-19T07:21:14.210Z,1.53
2022-12-19T07:23:42.178Z,1.10
2022-12-19T07:26:09.651Z,1.24
2022-12-19T07:28:38.089Z,1.30
2022-12-19T07:31:06.029Z,1.13
2022-12-19T07:33:34.020Z,1.26
2022-12-19T07:36:01.369Z,0.86
2022-12-19T07:38:29.048Z,0.92
2022-12-19T07:40:56.404Z,0.86
2022-12-19T07:43:23.966Z,0.93
2022-12-19T07:45:55.697Z,0.72
2022-12-19T07:48:23.671Z,0.79
2022-12-19T07:50:51.030Z,0.88
2022-12-19T07:53:18.690Z,1.01
2022-12-19T07:55:46.068Z,0.86
2022-12-19T07:58:16.171Z,1.03
2022-12-19T08:00:43.981Z,0.60
2022-12-19T08:03:11.826Z,0.90
2022-12-19T08:05:39.396Z,1.09
2022-12-19T08:08:06.769Z,1.05
2022-12-19T08:10:34.513Z,1.25
2022-12-19T08:13:01.852Z,1.05
2022-12-19T08:15:29.252Z,1.12
2022-12-19T08:17:56.993Z,1.26
2022-12-19T08:20:24.442Z,1.25
2022-12-19T08:22:51.761Z,1.14
2022-12-19T08:25:19.412Z,1.52
2022-12-19T08:27:46.801Z,0.94
2022-12-19T08:30:14.675Z,1.15
2022-12-19T08:32:42.745Z,1.27
2022-12-19T08:35:10.063Z,1.22
2022-12-19T08:37:37.579Z,1.48
2022-12-19T08:40:05.776Z,1.56
2022-12-19T08:42:33.806Z,1.48
2022-12-19T08:45:01.211Z,1.76
2022-12-19T08:47:28.998Z,1.70
2022-12-19T08:49:57.248Z,1.78
2022-12-19T08:52:24.997Z,1.77
2022-12-19T08:54:52.659Z,1.20
2022-12-19T08:57:20.104Z,1.47
2022-12-19T08:59:47.402Z,1.32
2022-12-19T09:02:16.417Z,1.51
2022-12-19T09:06:02.217Z,1.55
2022-12-19T09:07:31.629Z,1.56
2022-12-19T09:10:01.646Z,1.24
2022-12-19T09:12:29.040Z,1.19
2022-12-19T09:14:56.684Z,1.10
2022-12-19T09:17:23.995Z,1.09
2022-12-19T09:19:52.191Z,1.15
2022-12-19T09:22:21.174Z,0.89
2022-12-19T09:24:56.328Z,1.07
2022-12-19T09:27:24.595Z,0.88
2022-12-19T09:29:52.060Z,1.04
2022-12-19T09:32:19.346Z,0.94
2022-12-19T09:34:47.035Z,0.96
2022-12-19T09:37:16.356Z,1.19
2022-12-19T09:39:46.526Z,1.05
2022-12-19T09:42:20.465Z,0.90
2022-12-19T09:45:03.026Z,1.16
2022-12-19T09:47:32.681Z,1.20
2022-12-19T09:50:01.383Z,1.03
2022-12-19T09:52:43.570Z,1.04
2022-12-19T09:55:11.528Z,0.95
2022-12-19T09:57:55.858Z,0.98
2022-12-19T10:00:34.848Z,0.97
2022-12-19T10:03:12.865Z,1.26
2022-12-19T10:06:55.877Z,1.27
2022-12-19T10:09:09.995Z,1.50
2022-12-19T10:12:40.990Z,1.45
2022-12-19T10:15:26.341Z,1.36
2022-12-19T10:18:26.893Z,1.37
2022-12-19T10:21:12.030Z,1.31
2022-12-19T10:23:47.920Z,1.54
2022-12-19T10:26:34.544Z,1.51
2022-12-19T10:29:30.267Z,1.52
2022-12-19T10:32:10.139Z,1.66
2022-12-19T10:34:44.363Z,1.75
2022-12-19T10:37:45.682Z,1.63
2022-12-19T10:40:32.319Z,1.65
2022-12-19T10:43:07.900Z,1.87
2022-12-19T10:45:47.009Z,1.72
2022-12-19T10:48:21.279Z,1.55
2022-12-19T10:50:54.324Z,1.61
2022-12-19T10:53:29.954Z,1.58
2022-12-19T10:56:10.217Z,1.65
2022-12-19T10:58:38.636Z,1.58
2022-12-19T11:01:22.287Z,1.60
2022-12-19T11:04:19.024Z,1.48
2022-12-19T11:07:07.735Z,1.83
2022-12-19T11:09:40.813Z,1.86
2022-12-19T11:16:35.579Z,1.89
2022-12-19T11:22:42.465Z,1.99
2022-12-19T11:28:03.334Z,1.70
2022-12-19T11:29:27.192Z,1.85
2022-12-19T11:30:39.551Z,1.77
2022-12-19T11:30:43.170Z,1.85
2022-12-19T11:32:45.328Z,1.81
2022-12-19T11:35:16.310Z,1.75
2022-12-19T11:37:55.201Z,1.89
2022-12-19T11:40:33.378Z,1.69
2022-12-19T11:46:29.784Z,1.72
2022-12-19T11:49:01.765Z,1.66
2022-12-19T11:51:46.039Z,1.88
2022-12-19T11:54:22.664Z,2.05
2022-12-19T11:56:50.751Z,1.93
2022-12-19T11:59:27.520Z,1.97
2022-12-19T12:02:09.822Z,1.75
2022-12-19T12:04:56.146Z,1.77
2022-12-19T12:07:43.972Z,1.69
2022-12-19T12:14:57.445Z,1.84
2022-12-19T12:20:17.644Z,1.74
2022-12-19T12:24:58.820Z,1.66
2022-12-19T12:31:07.270Z,1.63
2022-12-19T12:31:07.829Z,1.85
2022-12-19T12:31:18.719Z,1.65
2022-12-19T12:31:57.408Z,1.71
2022-12-19T12:35:46.221Z,1.72
2022-12-19T12:40:40.076Z,1.44
2022-12-19T12:43:42.285Z,1.15
2022-12-19T12:46:20.342Z,1.22
2022-12-19T12:49:02.050Z,1.38
2022-12-19T12:51:33.300Z,1.25
2022-12-19T12:54:07.730Z,1.49
2022-12-19T12:56:37.235Z,1.44
2022-12-19T12:59:25.469Z,1.25
2022-12-19T13:02:00.699Z,1.45
2022-12-19T13:04:31.758Z,1.26
2022-12-19T13:07:13.936Z,1.21
2022-12-19T13:09:42.264Z,1.20
2022-12-19T13:12:46.376Z,1.22
2022-12-19T13:15:27.563Z,1.15
2022-12-19T13:17:55.217Z,1.15
2022-12-19T13:20:27.600Z,1.06
2022-12-19T13:22:58.755Z,1.21
2022-12-19T13:25:36.651Z,1.30
2022-12-19T13:28:04.332Z,1.43
2022-12-19T13:30:54.289Z,1.52
2022-12-19T13:33:20.868Z,1.54
2022-12-19T13:39:04.815Z,1.43
2022-12-19T13:39:58.210Z,1.20
2022-12-19T13:42:01.644Z,1.43
2022-12-19T13:44:36.952Z,1.48
2022-12-19T13:47:06.542Z,1.54
2022-12-19T13:49:35.499Z,1.40
2022-12-19T13:52:04.908Z,1.36
2022-12-19T13:54:36.898Z,1.47
2022-12-19T13:57:19.194Z,1.52
2022-12-19T13:59:59.660Z,1.56
2022-12-19T14:02:44.748Z,1.56
2022-12-19T14:05:30.613Z,1.48
2022-12-19T14:08:13.359Z,1.43
2022-12-19T14:11:41.683Z,1.40
2022-12-19T14:14:10.747Z,1.38
2022-12-19T14:16:46.004Z,1.61
2022-12-19T14:19:28.037Z,1.60
2022-12-19T14:22:15.786Z,1.65
2022-12-19T14:25:50.144Z,1.48
2022-12-19T14:28:19.732Z,1.52
2022-12-19T14:30:46.155Z,1.52
2022-12-19T14:33:43.987Z,1.38
2022-12-19T14:36:14.764Z,1.58
2022-12-19T14:39:23.670Z,1.63
2022-12-19T14:42:08.827Z,1.50
2022-12-19T14:52:26.128Z,1.36
2022-12-19T14:52:35.814Z,1.32
2022-12-19T14:54:16.637Z,1.41
2022-12-19T14:54:21.294Z,1.05
2022-12-19T14:59:01.825Z,1.04
2022-12-19T15:01:36.481Z,1.12
2022-12-19T15:04:52.764Z,1.15
2022-12-19T15:07:08.951Z,1.16
2022-12-19T15:11:06.266Z,0.85
2022-12-19T15:14:47.963Z,0.88
2022-12-19T15:16:02.433Z,0.86
2022-12-19T15:18:33.092Z,0.85
2022-12-19T15:21:02.988Z,0.87
2022-12-19T15:23:31.542Z,0.82
2022-12-19T15:26:07.050Z,0.66
2022-12-19T15:28:55.730Z,0.80
2022-12-19T15:31:36.533Z,0.71
2022-12-19T15:34:48.393Z,0.68
2022-12-19T15:37:16.482Z,0.80
2022-12-19T15:39:45.091Z,0.72
2022-12-19T15:42:20.205Z,0.66
2022-12-19T15:44:49.523Z,0.72
2022-12-19T15:47:32.025Z,0.56
2022-12-19T15:50:03.017Z,0.60
2022-12-19T15:52:30.384Z,0.37
2022-12-19T15:54:57.684Z,0.54
2022-12-19T15:57:36.562Z,0.56
2022-12-19T16:00:07.989Z,0.67
2022-12-19T16:03:20.639Z,0.63
2022-12-19T16:05:26.281Z,0.76
2022-12-19T16:07:54.336Z,0.84
2022-12-19T16:10:22.176Z,0.78
2022-12-19T16:12:53.281Z,0.62
2022-12-19T16:15:30.225Z,0.70
2022-12-19T16:17:59.304Z,0.79
2022-12-19T16:20:28.207Z,0.85
2022-12-19T16:22:55.814Z,0.78
2022-12-19T16:25:29.868Z,0.69
2022-12-19T16:27:59.563Z,0.75
2022-12-19T16:30:28.932Z,0.59
2022-12-19T16:32:56.223Z,0.57
2022-12-19T16:35:54.893Z,0.46
2022-12-19T16:38:13.237Z,0.39
2022-12-19T16:40:41.452Z,0.37
2022-12-19T16:43:27.024Z,0.42
2022-12-19T16:46:00.555Z,0.51
2022-12-19T16:48:32.266Z,0.56
2022-12-19T16:51:00.294Z,0.73
2022-12-19T16:53:28.037Z,0.61
2022-12-19T16:55:57.279Z,0.69
2022-12-19T16:58:27.667Z,0.50
2022-12-19T17:00:56.810Z,0.63
2022-12-19T17:03:41.928Z,0.62
2022-12-19T17:06:18.360Z,0.62
2022-12-19T17:08:46.688Z,0.76
2022-12-19T17:11:22.483Z,0.82
2022-12-19T17:13:53.611Z,0.53
2022-12-19T17:16:21.410Z,0.61
2022-12-19T17:18:49.311Z,0.42
2022-12-19T17:21:22.164Z,0.38
2022-12-19T17:23:50.855Z,0.58
2022-12-19T17:26:18.815Z,0.67
2022-12-19T17:28:48.449Z,0.70
2022-12-19T17:31:26.106Z,0.68
2022-12-19T17:33:58.055Z,0.51
2022-12-19T17:36:32.642Z,0.30
2022-12-19T17:39:21.897Z,0.34
2022-12-19T17:41:50.726Z,0.26
2022-12-19T17:44:19.051Z,0.10
2022-12-19T17:46:48.856Z,-0.06
2022-12-19T17:49:21.142Z,0.28
2022-12-19T17:51:52.524Z,0.35
2022-12-19T17:54:21.134Z,0.41
2022-12-19T17:56:50.636Z,0.22
2022-12-19T17:59:18.076Z,0.33
2022-12-19T18:01:49.341Z,0.48
2022-12-19T18:04:21.814Z,-0.09
2022-12-19T18:06:49.530Z,-0.04
2022-12-19T18:09:22.424Z,0.01
2022-12-19T18:11:50.949Z,-0.05
2022-12-19T18:14:20.003Z,-0.11
2022-12-19T18:16:49.969Z,-0.19
2022-12-19T18:19:24.683Z,-0.25
2022-12-19T18:21:52.684Z,-0.38
2022-12-19T18:24:20.473Z,-0.32
2022-12-19T18:26:47.983Z,-0.26
2022-12-19T18:29:16.837Z,-0.33
2022-12-19T18:31:50.409Z,-0.32
2022-12-19T18:34:23.111Z,-0.53
2022-12-19T18:36:51.872Z,-0.37
2022-12-19T18:39:26.193Z,-0.31
2022-12-19T18:41:54.814Z,-0.38
2022-12-19T18:44:23.228Z,-0.50
2022-12-19T18:46:52.188Z,-0.42
2022-12-19T18:49:19.924Z,-0.26
2022-12-19T18:51:49.149Z,-0.17
2022-12-19T18:54:22.442Z,-0.39
2022-12-19T18:56:50.207Z,-0.44
2022-12-19T18:59:17.534Z,-0.43
2022-12-19T19:01:47.056Z,-0.37
2022-12-19T19:04:18.216Z,-0.36
2022-12-19T19:06:51.769Z,-0.55
2022-12-19T19:09:21.308Z,-0.27
2022-12-19T19:11:49.639Z,-0.56
2022-12-19T19:14:18.151Z,-0.39
2022-12-19T19:16:46.298Z,-0.39
2022-12-19T19:19:18.573Z,-0.38
2022-12-19T19:21:46.532Z,-0.42
2022-12-19T19:24:20.832Z,-0.23
2022-12-19T19:26:49.656Z,-0.52
2022-12-19T19:29:19.161Z,-0.35
2022-12-19T19:31:49.719Z,-0.37
2022-12-19T19:34:23.377Z,-0.32
2022-12-19T19:36:54.975Z,-0.52
2022-12-19T19:39:23.559Z,-0.25
2022-12-19T19:41:51.090Z,-0.53
2022-12-19T19:44:18.473Z,-0.53
2022-12-19T19:46:46.296Z,-0.52
2022-12-19T19:49:13.748Z,-0.47
2022-12-19T19:51:41.384Z,-0.58
2022-12-19T19:54:09.157Z,-0.54
2022-12-19T19:56:36.551Z,-0.30
2022-12-19T19:59:04.021Z,-0.34
2022-12-19T20:01:32.329Z,-0.16
2022-12-19T20:04:00.297Z,-0.06
2022-12-19T20:06:27.782Z,-0.31
2022-12-19T20:08:55.071Z,-0.32
2022-12-19T20:11:22.780Z,-0.29
2022-12-19T20:13:50.126Z,-0.37
2022-12-19T20:16:19.359Z,-0.62
2022-12-19T20:18:52.075Z,-0.57
2022-12-19T20:21:20.970Z,-0.34
2022-12-19T20:23:48.699Z,-0.66
2022-12-19T20:26:17.498Z,-0.55
2022-12-19T20:28:49.323Z,-0.69
2022-12-19T20:31:23.297Z,-0.75
2022-12-19T20:33:53.308Z,-0.52
2022-12-19T20:36:21.702Z,-0.62
2022-12-19T20:38:50.221Z,-0.59
2022-12-19T20:41:18.610Z,-0.84
2022-12-19T20:43:46.394Z,-0.73
2022-12-19T20:46:19.143Z,-0.93
2022-12-19T20:48:48.295Z,-0.88
2022-12-19T20:51:17.525Z,-0.87
2022-12-19T20:53:45.584Z,-0.51
2022-12-19T20:56:17.094Z,-0.45
2022-12-19T20:58:45.557Z,-0.59
2022-12-19T21:01:22.348Z,-0.39
2022-12-19T21:03:50.538Z,-0.47
2022-12-19T21:06:21.303Z,-0.46
2022-12-19T21:08:48.887Z,-0.39
2022-12-19T21:11:18.223Z,-0.57
2022-12-19T21:13:46.591Z,-0.44
2022-12-19T21:16:18.049Z,-0.35
2022-12-19T21:18:47.386Z,-0.37
2022-12-19T21:21:18.554Z,-0.17
2022-12-19T21:23:46.611Z,-0.37
2022-12-19T21:26:14.397Z,-0.35
2022-12-19T21:28:42.147Z,-0.42
2022-12-19T21:31:19.208Z,-0.51
2022-12-19T21:33:47.350Z,-0.56
2022-12-19T21:36:21.826Z,-0.59
2022-12-19T21:38:51.149Z,-0.86
2022-12-19T21:41:19.659Z,-0.70
2022-12-19T21:43:54.547Z,-0.70
2022-12-19T21:46:28.023Z,-0.83
2022-12-19T21:48:57.037Z,-0.60
2022-12-19T21:51:26.151Z,-0.57
2022-12-19T21:53:56.055Z,-0.47
2022-12-19T21:56:29.797Z,-0.42
2022-12-19T21:59:00.893Z,-0.42
2022-12-19T22:01:29.278Z,-0.38
2022-12-19T22:04:02.609Z,-0.42
2022-12-19T22:06:32.799Z,-0.47
2022-12-19T22:09:03.244Z,-0.88
2022-12-19T22:11:31.351Z,-0.89
2022-12-19T22:14:00.586Z,-0.98
2022-12-19T22:16:29.476Z,-0.87
2022-12-19T22:18:57.079Z,-0.78
2022-12-19T22:21:25.554Z,-0.91
2022-12-19T22:23:57.775Z,-0.95
2022-12-19T22:26:26.784Z,-0.92
2022-12-19T22:28:56.205Z,-1.15
2022-12-19T22:31:30.427Z,-1.25
2022-12-19T22:34:03.912Z,-1.11
2022-12-19T22:36:32.973Z,-0.95
2022-12-19T22:39:01.397Z,-1.04
2022-12-19T22:41:29.029Z,-0.83
2022-12-19T22:43:56.704Z,-0.75
2022-12-19T22:46:30.492Z,-0.92
2022-12-19T22:49:00.721Z,-0.83
2022-12-19T22:51:30.488Z,-0.88
2022-12-19T22:53:58.234Z,-0.82
2022-12-19T22:56:28.421Z,-0.92
2022-12-19T22:58:59.066Z,-0.91
2022-12-19T23:01:32.745Z,-1.06
2022-12-19T23:04:02.762Z,-1.00
2022-12-19T23:06:32.607Z,-1.08
2022-12-19T23:09:01.468Z,-1.20
2022-12-19T23:11:32.258Z,-1.22
2022-12-19T23:14:02.080Z,-1.21
2022-12-19T23:16:29.785Z,-1.12
2022-12-19T23:18:57.748Z,-1.18
2022-12-19T23:21:26.542Z,-1.21
2022-12-19T23:23:55.470Z,-1.26
2022-12-19T23:26:28.730Z,-1.37
2022-12-19T23:29:00.736Z,-1.18
2022-12-19T23:31:29.296Z,-1.25
2022-12-19T23:33:58.062Z,-1.29
2022-12-19T23:37:08.894Z,-1.17
2022-12-19T23:39:14.148Z,-1.30
2022-12-19T23:41:41.591Z,-1.25
2022-12-19T23:44:10.342Z,-1.26
2022-12-19T23:46:38.401Z,-1.43
2022-12-19T23:49:06.308Z,-1.22
2022-12-19T23:51:33.629Z,-1.18
2022-12-19T23:54:01.272Z,-1.31
2022-12-19T23:56:30.994Z,-1.24
2022-12-19T23:58:59.122Z,-1.33
